createdAt,value
2023-12-13T00:02:03.035Z,8.07
2023-12-13T00:04:30.522Z,8.04
2023-12-13T00:06:57.955Z,8.01
2023-12-13T00:09:25.398Z,8.13
2023-12-13T00:11:52.803Z,7.97
2023-12-13T00:14:21.980Z,7.96
2023-12-13T00:16:49.442Z,7.98
2023-12-13T00:19:18.379Z,8.01
2023-12-13T00:21:46.302Z,8.03
2023-12-13T00:24:13.874Z,7.95
2023-12-13T00:26:41.950Z,7.84
2023-12-13T00:29:09.726Z,8.15
2023-12-13T00:31:37.350Z,7.78
2023-12-13T00:34:05.825Z,7.94
2023-12-13T00:36:34.838Z,7.89
2023-12-13T00:39:02.243Z,8.04
2023-12-13T00:41:29.647Z,8.09
2023-12-13T00:43:57.111Z,8.11
2023-12-13T00:46:24.660Z,8.25
2023-12-13T00:48:52.237Z,8.21
2023-12-13T00:51:21.401Z,8.12
2023-12-13T00:53:50.745Z,8.04
2023-12-13T00:56:18.882Z,7.86
2023-12-13T00:58:48.630Z,8.00
2023-12-13T01:01:17.359Z,7.98
2023-12-13T01:03:44.861Z,8.02
2023-12-13T01:06:12.510Z,8.07
2023-12-13T01:08:40.118Z,7.95
2023-12-13T01:11:12.819Z,8.06
2023-12-13T01:13:40.609Z,8.27
2023-12-13T01:16:08.648Z,8.24
2023-12-13T01:18:36.588Z,8.30
2023-12-13T01:21:04.415Z,8.35
2023-12-13T01:23:32.015Z,8.24
2023-12-13T01:25:59.451Z,8.19
2023-12-13T01:28:28.228Z,8.13
2023-12-13T01:30:55.886Z,8.32
2023-12-13T01:33:23.435Z,8.28
2023-12-13T01:35:51.011Z,8.19
2023-12-13T01:38:18.497Z,8.17
2023-12-13T01:41:10.801Z,8.33
2023-12-13T01:43:41.406Z,8.20
2023-12-13T01:46:09.797Z,8.20
2023-12-13T01:48:37.960Z,8.35
2023-12-13T01:51:05.718Z,8.00
2023-12-13T01:53:35.188Z,8.29
2023-12-13T01:56:04.666Z,8.25
2023-12-13T01:58:32.188Z,8.32
2023-12-13T02:01:00.982Z,8.40
2023-12-13T02:03:28.639Z,8.39
2023-12-13T02:05:56.041Z,8.30
2023-12-13T02:08:24.219Z,8.45
2023-12-13T02:10:51.957Z,8.22
2023-12-13T02:13:19.558Z,8.33
2023-12-13T02:15:47.721Z,8.26
2023-12-13T02:18:16.800Z,8.26
2023-12-13T02:20:44.366Z,8.31
2023-12-13T02:23:13.397Z,8.18
2023-12-13T02:25:57.959Z,8.19
2023-12-13T02:28:26.695Z,8.17
2023-12-13T02:30:56.079Z,8.32
2023-12-13T02:33:24.916Z,8.10
2023-12-13T02:35:52.884Z,8.13
2023-12-13T02:38:21.670Z,7.98
2023-12-13T02:40:49.211Z,8.06
2023-12-13T02:43:16.901Z,8.17
2023-12-13T02:45:44.441Z,7.76
2023-12-13T02:48:12.016Z,8.00
2023-12-13T02:50:40.235Z,8.11
2023-12-13T02:53:08.195Z,8.16
2023-12-13T02:55:36.923Z,8.09
2023-12-13T02:58:05.865Z,8.03
2023-12-13T03:00:33.426Z,7.85
2023-12-13T03:03:00.982Z,7.91
2023-12-13T03:05:28.480Z,7.86
2023-12-13T03:07:56.177Z,7.80
2023-12-13T03:10:23.768Z,7.80
2023-12-13T03:12:52.537Z,7.72
2023-12-13T03:15:19.940Z,7.84
2023-12-13T03:17:47.465Z,7.58
2023-12-13T03:20:14.081Z,7.72
2023-12-13T03:22:41.542Z,7.26
2023-12-13T03:25:09.575Z,7.75
2023-12-13T03:27:37.318Z,7.65
2023-12-13T03:30:07.335Z,7.62
2023-12-13T03:32:34.768Z,7.59
2023-12-13T03:35:02.227Z,7.66
2023-12-13T03:37:32.987Z,7.66
2023-12-13T03:40:00.688Z,7.87
2023-12-13T03:42:28.270Z,7.69
2023-12-13T03:44:57.153Z,7.56
2023-12-13T03:47:26.020Z,7.52
2023-12-13T03:49:53.780Z,7.54
2023-12-13T03:52:21.220Z,7.33
2023-12-13T03:54:48.629Z,7.56
2023-12-13T03:57:16.677Z,7.56
2023-12-13T03:59:44.135Z,7.68
2023-12-13T04:02:11.625Z,7.75
2023-12-13T04:04:40.538Z,7.80
2023-12-13T04:07:09.471Z,7.79
2023-12-13T04:09:37.033Z,7.94
2023-12-13T04:12:05.232Z,7.85
2023-12-13T04:14:32.654Z,7.80
2023-12-13T04:17:00.137Z,7.89
2023-12-13T04:19:27.581Z,7.94
2023-12-13T04:21:56.355Z,7.51
2023-12-13T04:24:23.765Z,7.76
2023-12-13T04:26:51.211Z,7.72
2023-12-13T04:29:18.672Z,7.85
2023-12-13T04:31:46.107Z,7.71
2023-12-13T04:34:13.656Z,7.85
2023-12-13T04:36:41.155Z,7.90
2023-12-13T04:39:09.909Z,7.70
2023-12-13T04:41:39.637Z,7.76
2023-12-13T04:44:08.876Z,7.78
2023-12-13T04:46:36.946Z,7.92
2023-12-13T04:49:04.600Z,7.75
2023-12-13T04:51:32.047Z,7.65
2023-12-13T04:53:59.852Z,7.82
2023-12-13T04:56:28.723Z,7.93
2023-12-13T04:58:56.195Z,7.81
2023-12-13T05:01:23.697Z,8.00
2023-12-13T05:03:51.245Z,7.70
2023-12-13T05:06:18.741Z,7.79
2023-12-13T05:08:46.215Z,7.84
2023-12-13T05:11:13.652Z,7.80
2023-12-13T05:13:42.544Z,7.81
2023-12-13T05:16:10.594Z,7.74
2023-12-13T05:18:38.065Z,7.67
2023-12-13T05:21:06.139Z,7.75
2023-12-13T05:23:33.553Z,7.91
2023-12-13T05:26:00.986Z,7.96
2023-12-13T05:28:29.509Z,7.99
2023-12-13T05:30:58.467Z,7.80
2023-12-13T05:33:25.997Z,7.88
2023-12-13T05:35:53.478Z,7.70
2023-12-13T05:38:21.323Z,7.73
2023-12-13T05:40:48.814Z,7.86
2023-12-13T05:43:16.289Z,7.84
2023-12-13T05:45:43.740Z,7.91
2023-12-13T05:48:14.070Z,8.02
2023-12-13T05:50:41.547Z,8.08
2023-12-13T05:53:09.010Z,8.05
2023-12-13T05:55:36.458Z,8.11
2023-12-13T05:58:03.949Z,8.11
2023-12-13T06:00:31.873Z,7.94
2023-12-13T06:03:00.311Z,7.53
2023-12-13T06:05:29.205Z,7.79
2023-12-13T06:07:57.461Z,7.78
2023-12-13T06:10:24.979Z,7.96
2023-12-13T06:12:53.926Z,8.02
2023-12-13T06:15:22.561Z,8.03
2023-12-13T06:17:50.109Z,8.04
2023-12-13T06:20:17.862Z,7.88
2023-12-13T06:22:46.735Z,8.06
2023-12-13T06:25:14.381Z,8.06
2023-12-13T06:27:41.857Z,8.05
2023-12-13T06:30:13.310Z,8.13
2023-12-13T06:32:40.844Z,8.15
2023-12-13T06:35:08.903Z,8.24
2023-12-13T06:37:36.682Z,8.18
2023-12-13T06:40:06.855Z,8.10
2023-12-13T06:42:34.448Z,8.26
2023-12-13T06:45:02.049Z,7.93
2023-12-13T06:47:30.794Z,8.08
2023-12-13T06:49:58.468Z,8.10
2023-12-13T06:52:26.226Z,8.11
2023-12-13T06:54:58.272Z,8.17
2023-12-13T06:57:26.987Z,8.26
2023-12-13T06:59:54.399Z,8.30
2023-12-13T07:02:21.914Z,8.04
2023-12-13T07:04:49.385Z,7.72
2023-12-13T07:07:17.086Z,8.05
2023-12-13T07:09:45.537Z,8.15
2023-12-13T07:12:13.402Z,8.18
2023-12-13T07:14:42.150Z,8.23
2023-12-13T07:17:09.923Z,8.28
2023-12-13T07:19:37.584Z,8.06
2023-12-13T07:22:05.463Z,7.95
2023-12-13T07:24:32.876Z,8.10
2023-12-13T07:27:00.317Z,8.24
2023-12-13T07:29:27.757Z,8.09
2023-12-13T07:31:56.641Z,7.90
2023-12-13T07:34:24.853Z,8.05
2023-12-13T07:36:54.600Z,8.13
2023-12-13T07:39:22.115Z,8.18
2023-12-13T07:41:49.526Z,8.05
2023-12-13T07:44:17.975Z,8.20
2023-12-13T07:46:45.474Z,8.31
2023-12-13T07:49:14.390Z,8.27
2023-12-13T07:51:41.873Z,8.29
2023-12-13T07:54:10.381Z,8.34
2023-12-13T07:56:37.857Z,8.26
2023-12-13T07:59:05.393Z,8.02
2023-12-13T08:01:33.300Z,7.82
2023-12-13T08:04:00.804Z,8.05
2023-12-13T08:06:30.251Z,8.17
2023-12-13T08:08:57.695Z,8.37
2023-12-13T08:11:25.166Z,8.26
2023-12-13T08:13:53.392Z,8.18
2023-12-13T08:16:20.926Z,8.24
2023-12-13T08:18:49.317Z,8.23
2023-12-13T08:21:16.795Z,8.30
2023-12-13T08:23:46.301Z,8.44
2023-12-13T08:26:14.376Z,8.33
2023-12-13T08:28:42.283Z,8.60
2023-12-13T08:31:17.570Z,8.71
2023-12-13T08:33:51.703Z,8.63
2023-12-13T08:36:19.372Z,8.58
2023-12-13T08:38:48.135Z,8.71
2023-12-13T08:41:17.174Z,8.91
2023-12-13T08:43:44.976Z,8.65
2023-12-13T08:46:13.236Z,8.95
2023-12-13T08:48:40.791Z,9.00
2023-12-13T08:51:08.301Z,9.01
2023-12-13T08:53:36.265Z,9.07
2023-12-13T08:56:06.208Z,9.04
2023-12-13T08:58:33.848Z,9.09
2023-12-13T09:01:03.032Z,9.03
2023-12-13T09:03:31.286Z,9.20
2023-12-13T09:05:58.713Z,9.27
2023-12-13T09:08:27.265Z,9.28
2023-12-13T09:10:54.726Z,9.39
2023-12-13T09:13:23.513Z,9.44
2023-12-13T09:15:50.937Z,9.60
2023-12-13T09:18:18.727Z,9.65
2023-12-13T09:20:47.001Z,9.09
2023-12-13T09:23:22.141Z,9.64
2023-12-13T09:25:49.839Z,9.70
2023-12-13T09:28:17.435Z,9.89
2023-12-13T09:30:46.621Z,9.80
2023-12-13T09:33:14.987Z,9.88
2023-12-13T09:35:44.911Z,9.95
2023-12-13T09:38:12.427Z,9.96
2023-12-13T09:40:40.008Z,10.06
2023-12-13T09:43:08.232Z,9.98
2023-12-13T09:45:38.020Z,10.00
2023-12-13T09:48:09.100Z,9.64
2023-12-13T09:50:38.366Z,9.52
2023-12-13T09:53:06.960Z,9.80
2023-12-13T09:55:37.668Z,9.20
2023-12-13T09:58:05.321Z,9.70
2023-12-13T10:00:33.221Z,9.91
2023-12-13T10:03:00.677Z,10.04
2023-12-13T10:05:30.453Z,10.20
2023-12-13T10:08:03.453Z,10.16
2023-12-13T10:10:32.336Z,10.03
2023-12-13T10:13:01.325Z,10.11
2023-12-13T10:15:31.616Z,10.26
2023-12-13T10:18:00.327Z,10.14
2023-12-13T10:20:31.225Z,9.92
2023-12-13T10:22:58.976Z,10.36
2023-12-13T10:25:26.481Z,9.98
2023-12-13T10:27:55.247Z,10.12
2023-12-13T10:30:23.836Z,10.14
2023-12-13T10:32:51.697Z,10.17
2023-12-13T10:35:20.704Z,10.37
2023-12-13T10:37:51.416Z,10.48
2023-12-13T10:40:21.570Z,10.68
2023-12-13T10:42:53.750Z,9.96
2023-12-13T10:45:22.740Z,10.57
2023-12-13T10:47:52.319Z,10.57
2023-12-13T10:50:23.368Z,10.79
2023-12-13T10:52:53.593Z,10.79
2023-12-13T10:55:21.470Z,10.86
2023-12-13T10:57:49.757Z,10.60
2023-12-13T11:00:18.805Z,10.79
2023-12-13T11:02:53.004Z,10.41
2023-12-13T11:05:21.242Z,10.08
2023-12-13T11:07:48.992Z,10.45
2023-12-13T11:10:17.863Z,10.47
2023-12-13T11:12:50.650Z,10.60
2023-12-13T11:15:18.950Z,10.36
2023-12-13T11:17:49.611Z,10.35
2023-12-13T11:20:18.763Z,10.60
2023-12-13T11:22:48.994Z,10.66
2023-12-13T11:25:18.892Z,10.77
2023-12-13T11:27:53.096Z,10.80
2023-12-13T11:30:23.441Z,10.87
2023-12-13T11:32:52.895Z,11.20
2023-12-13T11:35:22.256Z,11.22
2023-12-13T11:37:50.491Z,11.21
2023-12-13T11:40:19.751Z,11.51
2023-12-13T11:42:47.518Z,11.52
2023-12-13T11:45:15.065Z,11.95
2023-12-13T11:47:48.021Z,11.83
2023-12-13T11:50:17.671Z,11.43
2023-12-13T11:52:46.267Z,11.34
2023-12-13T11:55:17.635Z,11.31
2023-12-13T11:57:48.374Z,11.15
2023-12-13T12:00:19.473Z,11.17
2023-12-13T12:02:47.253Z,11.47
2023-12-13T12:05:15.029Z,11.62
2023-12-13T12:07:42.754Z,12.11
2023-12-13T12:10:11.929Z,12.12
2023-12-13T12:12:39.577Z,12.89
2023-12-13T12:15:12.223Z,12.45
2023-12-13T12:17:40.028Z,12.30
2023-12-13T12:20:08.802Z,11.96
2023-12-13T12:22:38.118Z,11.51
2023-12-13T12:25:06.663Z,11.63
2023-12-13T12:27:36.902Z,11.52
2023-12-13T12:30:05.050Z,11.02
2023-12-13T12:32:33.853Z,11.10
2023-12-13T12:35:03.763Z,10.93
2023-12-13T12:37:31.639Z,10.86
2023-12-13T12:39:59.312Z,11.30
2023-12-13T12:42:27.871Z,11.59
2023-12-13T12:44:55.293Z,11.63
2023-12-13T12:47:23.320Z,11.67
2023-12-13T12:49:56.033Z,12.14
2023-12-13T12:52:27.235Z,11.78
2023-12-13T12:54:55.786Z,12.21
2023-12-13T12:57:30.916Z,12.37
2023-12-13T12:59:58.773Z,12.19
2023-12-13T13:02:29.312Z,12.67
2023-12-13T13:04:58.777Z,12.80
2023-12-13T13:07:26.845Z,12.19
2023-12-13T13:09:56.573Z,12.03
2023-12-13T13:12:29.510Z,12.00
2023-12-13T13:14:57.896Z,11.71
2023-12-13T13:17:26.111Z,11.43
2023-12-13T13:19:53.650Z,11.53
2023-12-13T13:22:25.615Z,11.02
2023-12-13T13:24:53.344Z,10.83
2023-12-13T13:27:27.987Z,10.68
2023-12-13T13:29:56.528Z,10.73
2023-12-13T13:32:24.155Z,10.79
2023-12-13T13:34:51.650Z,10.74
2023-12-13T13:37:19.217Z,10.86
2023-12-13T13:39:49.226Z,10.71
2023-12-13T13:42:17.715Z,10.76
2023-12-13T13:44:45.399Z,10.63
2023-12-13T13:47:14.663Z,10.59
2023-12-13T13:49:42.336Z,10.69
2023-12-13T13:52:10.420Z,10.69
2023-12-13T13:54:37.861Z,10.74
2023-12-13T13:57:07.124Z,10.68
2023-12-13T13:59:34.714Z,10.92
2023-12-13T14:02:02.226Z,10.91
2023-12-13T14:04:29.812Z,11.05
2023-12-13T14:06:57.462Z,10.95
2023-12-13T14:09:24.948Z,10.65
2023-12-13T14:11:53.434Z,10.66
2023-12-13T14:14:23.285Z,10.72
2023-12-13T14:16:50.823Z,10.58
2023-12-13T14:19:18.444Z,10.55
2023-12-13T14:21:46.231Z,10.48
2023-12-13T14:24:13.648Z,10.42
2023-12-13T14:26:41.077Z,10.23
2023-12-13T14:29:08.527Z,10.32
2023-12-13T14:31:37.957Z,10.32
2023-12-13T14:34:05.517Z,10.18
2023-12-13T14:36:33.162Z,10.27
2023-12-13T14:39:00.657Z,10.40
2023-12-13T14:41:29.587Z,10.42
2023-12-13T14:43:57.168Z,10.44
2023-12-13T14:46:24.816Z,10.43
2023-12-13T14:48:54.271Z,10.29
2023-12-13T14:51:22.699Z,10.31
2023-12-13T14:53:51.524Z,10.27
2023-12-13T14:56:20.156Z,10.26
2023-12-13T14:58:47.558Z,10.20
2023-12-13T15:01:16.247Z,10.05
2023-12-13T15:03:43.741Z,10.11
2023-12-13T15:06:12.664Z,10.06
2023-12-13T15:08:40.674Z,10.03
2023-12-13T15:11:08.357Z,10.04
2023-12-13T15:13:36.493Z,9.96
2023-12-13T15:16:05.819Z,9.96
2023-12-13T15:18:34.170Z,9.90
2023-12-13T15:21:01.699Z,9.90
2023-12-13T15:23:30.676Z,9.98
2023-12-13T15:25:58.253Z,10.24
2023-12-13T15:28:25.928Z,10.43
2023-12-13T15:30:53.448Z,10.15
2023-12-13T15:33:21.297Z,10.22
2023-12-13T15:35:48.785Z,9.73
2023-12-13T15:38:16.319Z,9.95
2023-12-13T15:40:46.200Z,9.96
2023-12-13T15:43:13.626Z,10.17
2023-12-13T15:45:42.774Z,10.06
2023-12-13T15:48:11.280Z,9.64
2023-12-13T15:50:39.147Z,9.72
2023-12-13T15:53:08.614Z,9.27
2023-12-13T15:55:36.141Z,9.15
2023-12-13T15:58:05.031Z,9.28
2023-12-13T16:00:32.433Z,9.07
2023-12-13T16:03:00.900Z,9.14
2023-12-13T16:05:28.656Z,9.37
2023-12-13T16:07:56.312Z,9.68
2023-12-13T16:10:23.888Z,9.82
2023-12-13T16:12:51.520Z,9.89
2023-12-13T16:15:21.173Z,9.70
2023-12-13T16:17:49.346Z,9.89
2023-12-13T16:20:17.076Z,9.97
2023-12-13T16:22:44.685Z,9.97
2023-12-13T16:25:12.171Z,10.08
2023-12-13T16:27:40.138Z,10.34
2023-12-13T16:30:08.804Z,10.37
2023-12-13T16:32:38.092Z,9.91
2023-12-13T16:35:06.540Z,9.81
2023-12-13T16:37:37.098Z,9.50
2023-12-13T16:40:05.611Z,9.91
2023-12-13T16:42:33.222Z,9.76
2023-12-13T16:45:00.774Z,9.97
2023-12-13T16:47:28.261Z,10.01
2023-12-13T16:49:57.887Z,10.12
2023-12-13T16:52:25.370Z,10.14
2023-12-13T16:54:52.800Z,10.10
2023-12-13T16:57:21.785Z,10.04
2023-12-13T16:59:49.220Z,9.98
2023-12-13T17:02:16.752Z,10.15
2023-12-13T17:05:06.342Z,10.17
2023-12-13T17:07:34.660Z,10.08
2023-12-13T17:10:02.391Z,10.01
2023-12-13T17:12:29.860Z,10.01
2023-12-13T17:15:03.442Z,9.87
2023-12-13T17:17:32.094Z,9.76
2023-12-13T17:19:59.656Z,9.84
2023-12-13T17:22:31.983Z,9.93
2023-12-13T17:25:00.072Z,9.89
2023-12-13T17:27:28.403Z,9.75
2023-12-13T17:29:55.854Z,9.79
2023-12-13T17:32:23.597Z,9.75
2023-12-13T17:34:51.105Z,9.74
2023-12-13T17:37:19.967Z,9.69
2023-12-13T17:39:48.917Z,9.67
2023-12-13T17:42:16.439Z,9.60
2023-12-13T17:44:43.923Z,9.76
2023-12-13T17:47:11.533Z,9.77
2023-12-13T17:49:40.211Z,9.74
2023-12-13T17:52:08.599Z,9.68
2023-12-13T17:54:36.122Z,9.65
2023-12-13T17:57:06.264Z,9.66
2023-12-13T17:59:34.059Z,9.51
2023-12-13T18:02:02.130Z,9.59
2023-12-13T18:04:34.463Z,9.68
2023-12-13T18:07:02.141Z,9.41
2023-12-13T18:09:30.246Z,9.51
2023-12-13T18:11:57.791Z,9.15
2023-12-13T18:14:26.530Z,9.38
2023-12-13T18:16:54.224Z,9.46
2023-12-13T18:19:21.718Z,9.46
2023-12-13T18:21:52.892Z,9.42
2023-12-13T18:24:21.438Z,9.28
2023-12-13T18:26:49.256Z,9.11
2023-12-13T18:29:16.707Z,9.08
2023-12-13T18:31:47.002Z,8.71
2023-12-13T18:34:14.599Z,9.06
2023-12-13T18:36:42.020Z,9.08
2023-12-13T18:39:10.496Z,9.15
2023-12-13T18:41:37.973Z,9.14
2023-12-13T18:44:05.599Z,9.03
2023-12-13T18:46:33.081Z,8.84
2023-12-13T18:49:01.908Z,9.12
2023-12-13T18:51:29.335Z,9.15
2023-12-13T18:53:57.172Z,9.30
2023-12-13T18:56:24.641Z,9.22
2023-12-13T18:58:52.105Z,9.03
2023-12-13T19:01:19.608Z,9.00
2023-12-13T19:03:47.066Z,9.05
2023-12-13T19:06:15.849Z,8.96
2023-12-13T19:08:43.272Z,8.74
2023-12-13T19:11:12.445Z,9.02
2023-12-13T19:13:40.025Z,8.97
2023-12-13T19:16:08.309Z,9.00
2023-12-13T19:18:36.200Z,9.01
2023-12-13T19:21:03.911Z,8.93
2023-12-13T19:23:32.666Z,8.92
2023-12-13T19:26:00.145Z,8.85
2023-12-13T19:28:27.629Z,8.72
2023-12-13T19:30:56.134Z,8.13
2023-12-13T19:33:23.808Z,7.95
2023-12-13T19:35:51.240Z,8.42
2023-12-13T19:38:18.947Z,8.21
2023-12-13T19:40:47.745Z,8.02
2023-12-13T19:43:15.189Z,7.91
2023-12-13T19:45:42.800Z,8.38
2023-12-13T19:48:10.354Z,8.29
2023-12-13T19:50:38.070Z,7.88
2023-12-13T19:53:05.628Z,8.04
2023-12-13T19:55:33.118Z,8.05
2023-12-13T19:58:01.903Z,8.17
2023-12-13T20:00:30.085Z,7.79
2023-12-13T20:02:58.239Z,7.69
2023-12-13T20:05:25.778Z,8.08
2023-12-13T20:07:53.366Z,8.08
2023-12-13T20:10:20.798Z,7.88
2023-12-13T20:12:48.269Z,7.21
2023-12-13T20:15:20.113Z,7.25
2023-12-13T20:17:47.616Z,7.30
2023-12-13T20:20:15.396Z,7.57
2023-12-13T20:22:42.976Z,8.02
2023-12-13T20:25:11.021Z,7.95
2023-12-13T20:27:40.114Z,7.80
2023-12-13T20:30:09.121Z,7.79
2023-12-13T20:32:39.569Z,8.13
2023-12-13T20:35:08.573Z,8.26
2023-12-13T20:37:37.645Z,8.32
2023-12-13T20:40:07.547Z,8.35
2023-12-13T20:42:36.957Z,8.47
2023-12-13T20:45:06.077Z,8.43
2023-12-13T20:47:35.834Z,8.57
2023-12-13T20:50:05.466Z,8.54
2023-12-13T20:52:32.990Z,8.53
2023-12-13T20:55:00.408Z,8.59
2023-12-13T20:57:28.097Z,8.55
2023-12-13T20:59:56.064Z,8.34
2023-12-13T21:02:24.050Z,8.19
2023-12-13T21:04:51.582Z,8.07
2023-12-13T21:07:21.069Z,8.06
2023-12-13T21:09:48.484Z,7.85
2023-12-13T21:12:17.091Z,8.19
2023-12-13T21:14:44.647Z,8.27
2023-12-13T21:17:12.088Z,7.98
2023-12-13T21:19:39.580Z,8.15
2023-12-13T21:22:07.147Z,8.21
2023-12-13T21:24:37.536Z,8.22
2023-12-13T21:27:05.328Z,8.21
2023-12-13T21:29:32.841Z,8.18
2023-12-13T21:32:00.442Z,8.13
2023-12-13T21:34:28.054Z,8.07
2023-12-13T21:36:55.511Z,8.23
2023-12-13T21:39:24.124Z,8.24
2023-12-13T21:41:52.859Z,8.15
2023-12-13T21:44:20.256Z,8.18
2023-12-13T21:46:49.060Z,7.92
2023-12-13T21:49:16.532Z,8.03
2023-12-13T21:51:44.147Z,7.56
2023-12-13T21:54:11.544Z,7.50
2023-12-13T21:56:39.088Z,7.85
2023-12-13T21:59:07.992Z,7.86
2023-12-13T22:01:35.829Z,7.90
2023-12-13T22:04:04.466Z,7.79
2023-12-13T22:06:31.961Z,7.64
2023-12-13T22:08:59.373Z,7.70
2023-12-13T22:11:27.163Z,7.94
2023-12-13T22:13:54.693Z,7.81
2023-12-13T22:16:23.510Z,7.79
2023-12-13T22:19:00.456Z,7.63
2023-12-13T22:21:28.174Z,7.63
2023-12-13T22:23:55.868Z,7.39
2023-12-13T22:26:23.340Z,7.38
2023-12-13T22:28:50.803Z,7.38
2023-12-13T22:31:18.279Z,7.32
2023-12-13T22:33:47.096Z,7.32
2023-12-13T22:36:14.680Z,7.12
2023-12-13T22:38:42.100Z,7.09
2023-12-13T22:41:09.525Z,7.02
2023-12-13T22:43:36.967Z,7.28
2023-12-13T22:46:04.989Z,7.31
2023-12-13T22:48:32.388Z,7.26
2023-12-13T22:51:01.128Z,7.36
2023-12-13T22:53:28.523Z,7.39
2023-12-13T22:55:55.989Z,7.24
2023-12-13T22:58:23.651Z,7.28
2023-12-13T23:00:51.103Z,7.15
2023-12-13T23:03:18.548Z,7.33
2023-12-13T23:05:46.016Z,7.17
2023-12-13T23:08:14.819Z,7.35
2023-12-13T23:10:42.400Z,7.42
2023-12-13T23:13:09.873Z,7.44
2023-12-13T23:15:37.323Z,7.50
2023-12-13T23:18:05.003Z,7.41
2023-12-13T23:20:32.634Z,7.43
2023-12-13T23:23:00.744Z,7.50
2023-12-13T23:25:29.579Z,7.59
2023-12-13T23:27:57.408Z,7.59
2023-12-13T23:30:24.858Z,7.55
2023-12-13T23:32:52.291Z,7.59
2023-12-13T23:35:20.304Z,7.63
2023-12-13T23:37:47.798Z,7.65
2023-12-13T23:40:15.281Z,7.55
2023-12-13T23:42:44.039Z,7.63
2023-12-13T23:45:11.934Z,7.63
2023-12-13T23:47:39.328Z,7.66
2023-12-13T23:50:07.845Z,7.57
2023-12-13T23:52:35.728Z,7.54
2023-12-13T23:55:03.325Z,7.60
2023-12-13T23:57:30.754Z,7.68
2023-12-13T23:59:59.521Z,7.65
